createdAt,value
2017-08-31T01:33:17.443Z,99.90
2017-08-31T01:35:45.775Z,99.90
2017-08-31T01:38:14.482Z,99.90
2017-08-31T01:40:44.266Z,82.10
2017-08-31T01:43:13.308Z,82.70
2017-08-31T01:45:41.616Z,83.00
2017-08-31T01:48:09.928Z,83.40
2017-08-31T01:50:38.224Z,83.10
2017-08-31T01:53:06.831Z,83.50
2017-08-31T01:55:36.029Z,83.70
2017-08-31T01:58:04.342Z,84.00
2017-08-31T02:00:32.949Z,84.80
2017-08-31T02:03:02.764Z,85.10
2017-08-31T02:05:31.391Z,85.40
2017-08-31T02:07:59.689Z,85.70
2017-08-31T02:10:29.029Z,86.10
2017-08-31T02:12:57.473Z,86.70
2017-08-31T02:15:25.769Z,98.60
2017-08-31T02:17:55.181Z,98.20
2017-08-31T02:20:23.614Z,98.10
2017-08-31T02:22:51.884Z,97.90
2017-08-31T02:25:21.209Z,97.90
2017-08-31T02:27:49.502Z,98.00
2017-08-31T02:30:17.842Z,98.00
2017-08-31T02:32:46.907Z,98.20
2017-08-31T02:35:15.315Z,98.30
2017-08-31T02:37:44.286Z,98.60
2017-08-31T02:40:12.901Z,98.90
2017-08-31T02:42:41.303Z,98.90
2017-08-31T02:45:11.177Z,99.00
2017-08-31T02:47:39.716Z,99.00
2017-08-31T02:50:08.349Z,99.00
2017-08-31T02:52:38.400Z,99.90
2017-08-31T02:55:06.983Z,99.90
2017-08-31T03:07:35.553Z,92.00
2017-08-31T03:10:04.094Z,92.40
2017-08-31T03:12:32.415Z,92.60
2017-08-31T03:15:01.237Z,92.90
2017-08-31T03:17:29.529Z,93.10
2017-08-31T03:19:57.845Z,93.60
2017-08-31T03:22:26.440Z,93.30
2017-08-31T03:24:54.747Z,93.40
2017-08-31T03:27:23.042Z,93.60
2017-08-31T03:29:51.396Z,93.80
2017-08-31T03:32:19.678Z,93.80
2017-08-31T03:34:48.896Z,94.00
2017-08-31T03:37:17.202Z,94.10
2017-08-31T03:39:45.517Z,94.20
2017-08-31T03:42:14.824Z,94.50
2017-08-31T03:44:43.100Z,94.50
2017-08-31T03:47:11.398Z,94.60
2017-08-31T03:49:39.770Z,94.80
2017-08-31T03:52:08.459Z,95.30
2017-08-31T03:54:37.079Z,95.20
2017-08-31T03:57:06.690Z,95.40
2017-08-31T03:59:36.128Z,95.60
2017-08-31T04:02:04.529Z,95.80
2017-08-31T04:04:33.316Z,96.00
2017-08-31T04:07:01.856Z,96.30
2017-08-31T04:09:30.357Z,96.40
2017-08-31T04:11:59.238Z,96.60
2017-08-31T04:14:28.236Z,96.80
2017-08-31T04:16:56.523Z,97.00
2017-08-31T04:19:25.098Z,97.20
2017-08-31T04:21:53.394Z,97.30
2017-08-31T04:24:23.318Z,97.60
2017-08-31T04:26:51.697Z,97.80
2017-08-31T04:29:19.997Z,97.80
2017-08-31T04:31:48.664Z,98.00
2017-08-31T04:34:16.951Z,98.20
2017-08-31T04:36:45.248Z,98.40
2017-08-31T04:39:13.784Z,98.70
2017-08-31T04:41:42.104Z,99.30
2017-08-31T04:44:10.756Z,99.10
2017-08-31T04:46:39.085Z,99.30
2017-08-31T04:49:07.452Z,99.60
2017-08-31T04:51:36.040Z,99.70
2017-08-31T04:54:04.368Z,99.90
2017-08-31T04:56:33.601Z,99.90
2017-08-31T04:59:02.791Z,99.90
2017-08-31T05:01:31.086Z,99.90
2017-08-31T05:04:00.006Z,99.90
2017-08-31T05:06:29.891Z,99.90
2017-08-31T05:08:58.468Z,99.90
2017-08-31T05:11:27.159Z,99.90
2017-08-31T09:23:47.405Z,99.90
2017-08-31T09:28:46.397Z,99.90
2017-08-31T09:31:14.773Z,99.90
2017-08-31T09:33:43.093Z,99.90
2017-08-31T09:36:11.397Z,99.90
2017-08-31T09:38:40.035Z,99.90
2017-08-31T09:41:08.365Z,99.90
2017-08-31T09:43:36.832Z,99.90
2017-08-31T09:46:06.395Z,99.90
2017-08-31T09:48:35.035Z,99.90
2017-08-31T09:51:03.701Z,99.90
2017-08-31T09:53:32.000Z,99.90
2017-08-31T09:56:00.320Z,99.90
2017-08-31T10:55:55.057Z,80.90
2017-08-31T10:58:23.747Z,83.20
2017-08-31T11:00:52.870Z,83.30
2017-08-31T11:03:22.182Z,83.90
2017-08-31T11:05:50.501Z,84.50
2017-08-31T11:08:18.809Z,85.60
2017-08-31T11:10:47.828Z,86.50
2017-08-31T11:13:16.845Z,86.30
2017-08-31T11:15:45.836Z,85.30
2017-08-31T11:18:14.576Z,83.40
2017-08-31T11:20:43.677Z,78.00
2017-08-31T11:23:11.966Z,78.00
2017-08-31T11:25:40.312Z,77.90
2017-08-31T11:28:08.976Z,73.60
2017-08-31T11:33:07.172Z,99.70
2017-08-31T11:48:04.750Z,51.70
2017-08-31T11:50:35.047Z,59.40
2017-08-31T11:55:33.834Z,48.90
2017-08-31T11:58:02.219Z,49.40
2017-08-31T12:00:31.415Z,48.50
2017-08-31T12:02:59.753Z,50.00
2017-08-31T12:05:28.856Z,49.10
2017-08-31T12:07:57.492Z,48.20
2017-08-31T12:10:26.690Z,47.20
2017-08-31T12:12:55.713Z,62.50
2017-08-31T12:15:24.944Z,72.10
2017-08-31T12:17:54.011Z,63.00
2017-08-31T12:22:52.360Z,57.70
2017-08-31T12:25:21.499Z,49.90
2017-08-31T12:27:50.162Z,50.40
2017-08-31T12:30:18.444Z,52.00
2017-08-31T12:32:46.795Z,50.90
2017-08-31T12:35:15.365Z,51.00
2017-08-31T12:37:43.622Z,50.30
2017-08-31T12:40:12.729Z,53.00
2017-08-31T12:42:42.634Z,58.50
2017-08-31T12:45:10.882Z,59.00
2017-08-31T12:50:10.308Z,79.40
2017-08-31T12:52:38.691Z,84.80
2017-08-31T12:55:07.280Z,93.50
2017-08-31T12:57:35.746Z,93.20
2017-08-31T13:00:05.505Z,94.90
2017-08-31T13:02:33.898Z,95.20
2017-08-31T13:05:02.187Z,96.70
2017-08-31T13:07:30.869Z,97.60
2017-08-31T13:10:00.021Z,99.90
2017-08-31T13:12:28.943Z,99.90
2017-08-31T13:14:57.985Z,99.90
2017-08-31T13:17:26.799Z,99.90
2017-08-31T13:19:55.470Z,99.90
2017-08-31T13:22:23.951Z,99.90
2017-08-31T13:24:52.581Z,99.90
2017-08-31T13:27:21.777Z,99.90
2017-08-31T13:29:50.631Z,99.90
2017-08-31T13:32:19.349Z,99.90
2017-08-31T13:34:47.661Z,99.90
2017-08-31T13:37:15.983Z,99.90
2017-08-31T13:39:44.683Z,99.90
2017-08-31T13:42:13.101Z,99.90
2017-08-31T13:44:42.294Z,99.90
2017-08-31T13:47:10.625Z,99.90
2017-08-31T13:49:39.519Z,99.90
2017-08-31T13:52:07.892Z,99.90
2017-08-31T13:54:36.297Z,99.90
2017-08-31T13:57:04.689Z,99.90
2017-08-31T13:59:34.349Z,99.90
2017-08-31T14:02:03.023Z,99.90
2017-08-31T14:04:31.967Z,99.90
2017-08-31T14:07:01.518Z,99.90
2017-08-31T14:09:29.856Z,99.90
2017-08-31T14:11:58.873Z,99.90
2017-08-31T14:14:27.936Z,99.90
2017-08-31T14:16:56.258Z,99.90
2017-08-31T14:19:25.882Z,99.90
2017-08-31T14:21:54.197Z,99.90
2017-08-31T14:24:23.590Z,99.90
2017-08-31T14:59:20.087Z,99.90
2017-08-31T15:11:50.718Z,99.90
2017-08-31T15:14:19.436Z,99.90
2017-08-31T15:16:47.759Z,99.90
2017-08-31T15:19:17.319Z,99.90
2017-08-31T15:21:46.664Z,99.90
2017-08-31T15:24:15.280Z,99.90
2017-08-31T15:26:43.582Z,99.90
2017-08-31T15:29:12.649Z,99.90
2017-08-31T15:41:42.220Z,99.90
2017-08-31T15:44:11.123Z,99.90
2017-08-31T15:46:39.780Z,99.90
2017-08-31T15:54:08.457Z,99.90
2017-08-31T15:56:36.786Z,99.90
2017-08-31T16:01:35.174Z,99.90
2017-08-31T16:04:05.343Z,99.90
2017-08-31T16:06:33.656Z,99.90
2017-08-31T16:09:01.933Z,99.90
2017-08-31T16:11:32.022Z,99.90
2017-08-31T16:14:00.826Z,99.90
2017-08-31T16:16:29.825Z,99.90
2017-08-31T16:18:58.119Z,99.90
2017-08-31T16:21:26.434Z,99.90
2017-08-31T16:23:54.983Z,99.90
2017-08-31T16:26:23.280Z,99.90
2017-08-31T16:28:51.854Z,99.90
2017-08-31T16:31:20.570Z,99.90
2017-08-31T16:33:48.843Z,99.90
2017-08-31T16:36:17.683Z,99.90
2017-08-31T16:38:46.529Z,99.90
2017-08-31T16:41:15.216Z,99.90
2017-08-31T16:43:43.505Z,99.90
2017-08-31T16:46:11.788Z,99.90
2017-08-31T16:48:40.795Z,99.90
2017-08-31T16:51:09.103Z,99.90
2017-08-31T16:53:37.736Z,99.90
2017-08-31T16:56:06.903Z,99.90
2017-08-31T16:58:35.589Z,99.90
2017-08-31T17:01:04.185Z,99.90
2017-08-31T17:03:32.481Z,99.90
2017-08-31T17:06:00.775Z,99.90
2017-08-31T17:08:29.980Z,99.90
2017-08-31T17:10:58.261Z,99.90
2017-08-31T17:13:26.905Z,99.90
2017-08-31T17:15:55.438Z,99.90
2017-08-31T17:18:23.727Z,99.90
2017-08-31T17:20:52.093Z,99.90
2017-08-31T17:23:20.401Z,99.90
2017-08-31T17:25:49.345Z,99.90
2017-08-31T17:28:17.651Z,99.90
2017-08-31T17:30:45.960Z,99.90
2017-08-31T17:33:14.969Z,99.90
2017-08-31T17:35:43.278Z,99.90
2017-08-31T17:38:12.603Z,99.90
2017-08-31T17:40:40.942Z,99.90
2017-08-31T17:43:09.268Z,99.90
2017-08-31T17:45:37.920Z,99.90
2017-08-31T17:48:06.207Z,99.90
2017-08-31T17:50:34.849Z,99.90
2017-08-31T17:53:03.169Z,99.90
2017-08-31T17:55:31.469Z,99.90
2017-08-31T17:57:59.795Z,99.90
2017-08-31T18:00:28.099Z,99.90
2017-08-31T18:02:56.681Z,99.90
2017-08-31T18:05:25.059Z,99.90
2017-08-31T18:07:53.957Z,99.90
2017-08-31T18:10:23.982Z,99.90
2017-08-31T18:12:53.161Z,99.90
2017-08-31T18:15:21.868Z,99.90
2017-08-31T18:17:50.172Z,99.90
2017-08-31T18:20:19.257Z,99.90
2017-08-31T18:22:47.846Z,99.90
2017-08-31T18:25:16.131Z,99.90
2017-08-31T18:27:44.442Z,99.90
2017-08-31T18:30:13.854Z,99.90
2017-08-31T18:32:42.666Z,99.90
2017-08-31T18:35:11.014Z,99.90
2017-08-31T18:37:39.365Z,99.90
2017-08-31T18:40:08.300Z,99.90
2017-08-31T18:42:37.000Z,99.90
2017-08-31T18:45:05.367Z,99.90
2017-08-31T18:47:33.665Z,99.90
2017-08-31T18:50:02.240Z,99.90
2017-08-31T18:52:30.558Z,99.90
2017-08-31T18:54:59.165Z,99.90
2017-08-31T18:57:27.945Z,99.90
2017-08-31T18:59:56.269Z,99.90
2017-08-31T19:02:26.002Z,99.90
2017-08-31T19:04:54.271Z,99.90
2017-08-31T19:07:23.211Z,99.90
2017-08-31T19:09:51.850Z,99.90
2017-08-31T19:12:20.138Z,99.90
2017-08-31T19:14:48.413Z,99.90
2017-08-31T19:17:17.099Z,99.90
2017-08-31T19:19:45.411Z,99.90
2017-08-31T19:22:13.776Z,99.90
2017-08-31T19:24:42.063Z,99.90
2017-08-31T19:27:10.378Z,99.90
2017-08-31T19:29:39.041Z,99.90
2017-08-31T19:32:07.326Z,99.90
2017-08-31T19:34:35.920Z,99.90
2017-08-31T19:37:04.499Z,99.90
2017-08-31T19:39:33.616Z,99.90
2017-08-31T19:42:02.520Z,99.90
2017-08-31T19:44:30.836Z,99.90
2017-08-31T19:46:59.366Z,99.90
2017-08-31T19:49:28.037Z,99.90
2017-08-31T19:51:56.334Z,99.90
2017-08-31T19:54:24.641Z,99.90
2017-08-31T19:56:53.895Z,99.90
2017-08-31T19:59:22.201Z,99.90
2017-08-31T20:01:50.805Z,99.90
2017-08-31T20:04:20.766Z,99.90
2017-08-31T20:06:50.328Z,99.90
2017-08-31T20:09:18.914Z,99.90
2017-08-31T20:11:47.302Z,99.90
2017-08-31T20:14:15.685Z,99.90
2017-08-31T20:16:44.002Z,99.90
2017-08-31T20:19:12.272Z,99.90
2017-08-31T20:21:41.212Z,99.90
2017-08-31T20:24:10.935Z,99.90
2017-08-31T20:26:39.248Z,99.90
2017-08-31T20:29:07.900Z,99.90
2017-08-31T20:31:36.255Z,99.90
2017-08-31T20:34:04.525Z,99.90
2017-08-31T20:36:33.135Z,99.90
2017-08-31T20:39:01.453Z,99.90
2017-08-31T20:41:29.725Z,99.90
2017-08-31T20:43:58.393Z,99.90
2017-08-31T20:46:26.673Z,99.90
2017-08-31T20:48:55.794Z,99.90
2017-08-31T20:51:24.115Z,99.90
2017-08-31T20:53:52.450Z,99.90
2017-08-31T20:56:21.052Z,99.90
2017-08-31T20:58:50.176Z,99.90
2017-08-31T21:01:18.458Z,99.90
2017-08-31T21:03:47.110Z,99.90
2017-08-31T21:06:15.417Z,99.90
2017-08-31T21:08:43.834Z,99.90
2017-08-31T21:11:13.612Z,99.90
2017-08-31T21:13:42.231Z,99.90
2017-08-31T21:16:10.556Z,99.90
2017-08-31T21:18:38.956Z,99.90
2017-08-31T21:21:07.582Z,99.90
2017-08-31T21:23:38.784Z,99.90
2017-08-31T21:26:07.193Z,99.90
2017-08-31T21:28:35.941Z,99.90
2017-08-31T21:31:04.756Z,99.90
2017-08-31T21:33:33.459Z,99.90
2017-08-31T21:36:04.819Z,99.90
2017-08-31T21:38:33.193Z,99.90
2017-08-31T21:41:01.512Z,99.90
2017-08-31T21:43:29.877Z,99.90
2017-08-31T21:45:58.169Z,99.90
2017-08-31T21:48:26.741Z,99.90
2017-08-31T21:50:55.452Z,99.90
2017-08-31T21:53:23.770Z,99.90
2017-08-31T21:55:52.124Z,99.90
2017-08-31T21:58:21.039Z,99.90
2017-08-31T22:00:49.627Z,99.90
2017-08-31T22:03:18.835Z,99.90
2017-08-31T22:05:47.303Z,99.90
2017-08-31T22:08:15.933Z,99.90
2017-08-31T22:10:44.601Z,99.90
2017-08-31T22:13:12.900Z,99.90
2017-08-31T22:15:41.528Z,99.90
2017-08-31T22:18:10.420Z,99.90
2017-08-31T22:20:39.454Z,99.90
2017-08-31T22:23:08.076Z,99.90
2017-08-31T22:25:36.449Z,99.90
2017-08-31T22:28:04.768Z,99.90
2017-08-31T22:30:33.332Z,99.90
2017-08-31T22:33:04.219Z,99.90
2017-08-31T22:35:34.146Z,99.90
2017-08-31T22:38:02.677Z,99.90
2017-08-31T22:47:59.960Z,99.90
2017-08-31T22:50:28.290Z,99.90
2017-08-31T22:52:56.594Z,99.90
2017-08-31T22:55:25.283Z,99.90
2017-08-31T22:58:15.196Z,99.90
2017-08-31T23:00:44.945Z,99.90
2017-08-31T23:03:13.235Z,99.90
2017-08-31T23:05:41.535Z,99.90
2017-08-31T23:08:10.054Z,99.90
2017-08-31T23:10:40.115Z,99.90
2017-08-31T23:13:09.418Z,99.90
2017-08-31T23:15:37.735Z,99.90
2017-08-31T23:18:06.043Z,99.90
2017-08-31T23:20:34.356Z,99.90
2017-08-31T23:23:02.860Z,99.90
2017-08-31T23:25:32.334Z,99.90
2017-08-31T23:28:00.636Z,99.90
2017-08-31T23:30:28.921Z,99.90
2017-08-31T23:32:57.513Z,99.90
2017-08-31T23:35:26.834Z,99.90
2017-08-31T23:37:55.951Z,99.90
2017-08-31T23:40:25.022Z,99.90
2017-08-31T23:42:53.355Z,99.90
2017-08-31T23:45:21.938Z,99.90
2017-08-31T23:47:50.230Z,99.90
2017-08-31T23:50:18.516Z,99.90
2017-08-31T23:52:47.107Z,99.90
2017-08-31T23:55:15.388Z,99.90
2017-08-31T23:57:44.017Z,99.90
